Terminal Aerodrome Forecast
Issued by NWS Mt. Holly, NJ

Home | Current Version | Previous Version | Text Only | Print | Product List | Glossary On
Versions: 1 2 3 4 5 6 7 8 9 10 11 12 13 14 15 16 17 18 19 20 21 22 23 24 25 26 27 28 29 30 31 32
000
FTUS41 KPHI 221500 AAA
TAFACY
TAF AMD
KACY 221527Z 2215/2312 29012G20KT P6SM SCT040
      TEMPO 2217/2219 BKN040
     FM222200 31012KT P6SM SKC
     FM230300 32005KT P6SM SCT250=

USA.gov is the U.S. government's official web portal to all federal, state and local government web resources and services.